sensor_id;sensor_type;location;lat;lon;timestamp;pressure;altitude;pressure_sealevel;temperature;humidity
68230;BME280;55048;52.220;5.160;2023-06-26T00:01:31;101056.94;;;26.93;48.98
68230;BME280;55048;52.220;5.160;2023-06-26T00:03:57;101066.63;;;26.91;49.10
68230;BME280;55048;52.220;5.160;2023-06-26T00:06:27;101069.22;;;27.00;49.24
68230;BME280;55048;52.220;5.160;2023-06-26T00:08:53;101061.63;;;26.93;49.46
68230;BME280;55048;52.220;5.160;2023-06-26T00:11:20;100978.25;;;26.34;49.69
68230;BME280;55048;52.220;5.160;2023-06-26T00:13:45;101062.88;;;26.83;50.02
68230;BME280;55048;52.220;5.160;2023-06-26T00:16:11;101019.09;;;26.55;50.13
68230;BME280;55048;52.220;5.160;2023-06-26T00:18:36;101035.69;;;26.62;50.38
68230;BME280;55048;52.220;5.160;2023-06-26T00:21:01;100926.41;;;25.85;50.56
68230;BME280;55048;52.220;5.160;2023-06-26T00:23:27;101003.38;;;26.40;50.81
68230;BME280;55048;52.220;5.160;2023-06-26T00:25:53;101040.13;;;26.55;51.16
68230;BME280;55048;52.220;5.160;2023-06-26T00:28:18;101016.75;;;26.33;51.46
68230;BME280;55048;52.220;5.160;2023-06-26T00:30:44;101024.06;;;26.41;51.78
68230;BME280;55048;52.220;5.160;2023-06-26T00:33:09;101025.50;;;26.38;51.95
68230;BME280;55048;52.220;5.160;2023-06-26T00:35:35;101066.59;;;26.66;52.09
68230;BME280;55048;52.220;5.160;2023-06-26T00:38:03;100987.44;;;26.17;52.07
68230;BME280;55048;52.220;5.160;2023-06-26T00:40:28;101035.50;;;26.34;52.62
68230;BME280;55048;52.220;5.160;2023-06-26T00:42:54;101041.88;;;26.38;52.77
68230;BME280;55048;52.220;5.160;2023-06-26T00:45:20;100971.69;;;25.90;52.90
68230;BME280;55048;52.220;5.160;2023-06-26T00:47:46;100980.22;;;25.88;53.04
68230;BME280;55048;52.220;5.160;2023-06-26T00:50:12;101024.91;;;26.08;53.13
68230;BME280;55048;52.220;5.160;2023-06-26T00:52:38;101091.38;;;26.49;52.93
68230;BME280;55048;52.220;5.160;2023-06-26T00:55:05;101073.47;;;26.39;53.07
68230;BME280;55048;52.220;5.160;2023-06-26T00:57:31;100985.75;;;25.80;52.79
68230;BME280;55048;52.220;5.160;2023-06-26T00:59:56;100975.63;;;25.59;53.00
68230;BME280;55048;52.220;5.160;2023-06-26T01:02:22;101052.56;;;25.98;53.02
68230;BME280;55048;52.220;5.160;2023-06-26T01:04:50;100978.53;;;25.42;53.08
68230;BME280;55048;52.220;5.160;2023-06-26T01:07:18;101037.31;;;25.43;53.83
68230;BME280;55048;52.220;5.160;2023-06-26T01:09:48;100994.19;;;25.24;53.62
68230;BME280;55048;52.220;5.160;2023-06-26T01:12:15;101106.06;;;25.82;53.63
68230;BME280;55048;52.220;5.160;2023-06-26T01:14:40;101008.06;;;25.10;54.17
68230;BME280;55048;52.220;5.160;2023-06-26T01:17:07;101117.00;;;25.73;54.46
68230;BME280;55048;52.220;5.160;2023-06-26T01:19:37;101081.31;;;25.45;54.67
68230;BME280;55048;52.220;5.160;2023-06-26T01:22:16;101129.81;;;25.52;55.86
68230;BME280;55048;52.220;5.160;2023-06-26T01:25:03;101089.13;;;25.26;55.75
68230;BME280;55048;52.220;5.160;2023-06-26T01:27:35;101114.56;;;25.30;55.77
68230;BME280;55048;52.220;5.160;2023-06-26T01:30:02;101133.81;;;25.25;56.64
68230;BME280;55048;52.220;5.160;2023-06-26T01:32:30;101135.56;;;25.29;56.09
68230;BME280;55048;52.220;5.160;2023-06-26T01:34:57;101103.97;;;24.99;56.51
68230;BME280;55048;52.220;5.160;2023-06-26T01:37:22;101116.47;;;25.00;56.48
68230;BME280;55048;52.220;5.160;2023-06-26T01:39:48;101128.16;;;25.00;56.24
68230;BME280;55048;52.220;5.160;2023-06-26T01:42:14;101098.03;;;24.67;56.85
68230;BME280;55048;52.220;5.160;2023-06-26T01:44:44;101117.97;;;24.80;56.95
68230;BME280;55048;52.220;5.160;2023-06-26T01:47:12;101028.38;;;24.19;56.94
68230;BME280;55048;52.220;5.160;2023-06-26T01:50:06;101111.13;;;24.74;57.25
68230;BME280;55048;52.220;5.160;2023-06-26T01:52:57;101110.31;;;24.73;57.54
68230;BME280;55048;52.220;5.160;2023-06-26T01:55:38;101122.81;;;24.65;57.67
68230;BME280;55048;52.220;5.160;2023-06-26T01:58:06;101066.59;;;24.31;57.97
68230;BME280;55048;52.220;5.160;2023-06-26T02:00:32;101050.97;;;24.11;58.34
68230;BME280;55048;52.220;5.160;2023-06-26T02:02:58;101118.25;;;24.40;58.44
68230;BME280;55048;52.220;5.160;2023-06-26T02:05:24;101114.09;;;24.25;58.79
68230;BME280;55048;52.220;5.160;2023-06-26T02:07:50;101123.03;;;24.08;59.33
68230;BME280;55048;52.220;5.160;2023-06-26T02:10:16;101066.47;;;23.76;59.84
68230;BME280;55048;52.220;5.160;2023-06-26T02:12:42;101053.69;;;23.76;59.78
68230;BME280;55048;52.220;5.160;2023-06-26T02:15:08;101066.78;;;23.91;59.72
68230;BME280;55048;52.220;5.160;2023-06-26T02:17:33;101072.25;;;23.74;60.27
68230;BME280;55048;52.220;5.160;2023-06-26T02:19:59;101037.06;;;23.43;60.55
68230;BME280;55048;52.220;5.160;2023-06-26T02:22:25;101091.38;;;23.78;60.64
68230;BME280;55048;52.220;5.160;2023-06-26T02:24:50;101144.78;;;24.00;61.07
68230;BME280;55048;52.220;5.160;2023-06-26T02:27:16;101080.19;;;23.62;61.18
68230;BME280;55048;52.220;5.160;2023-06-26T02:29:41;101143.97;;;23.99;61.50
68230;BME280;55048;52.220;5.160;2023-06-26T02:32:07;101046.16;;;23.38;61.50
68230;BME280;55048;52.220;5.160;2023-06-26T02:34:34;101137.56;;;23.95;61.60
68230;BME280;55048;52.220;5.160;2023-06-26T02:37:00;101138.88;;;23.98;61.63
68230;BME280;55048;52.220;5.160;2023-06-26T02:39:26;101145.88;;;23.90;61.59
68230;BME280;55048;52.220;5.160;2023-06-26T02:41:52;101095.19;;;23.59;61.62
68230;BME280;55048;52.220;5.160;2023-06-26T02:44:18;101093.75;;;23.62;61.69
68230;BME280;55048;52.220;5.160;2023-06-26T02:46:43;101069.63;;;23.43;62.11
68230;BME280;55048;52.220;5.160;2023-06-26T02:49:09;101084.31;;;23.42;62.76
68230;BME280;55048;52.220;5.160;2023-06-26T02:51:34;101085.25;;;23.29;63.11
68230;BME280;55048;52.220;5.160;2023-06-26T02:54:05;101011.19;;;22.71;63.32
68230;BME280;55048;52.220;5.160;2023-06-26T02:56:31;101105.81;;;23.30;63.49
68230;BME280;55048;52.220;5.160;2023-06-26T02:58:58;101200.44;;;23.62;63.71
68230;BME280;55048;52.220;5.160;2023-06-26T03:01:24;101158.91;;;23.62;63.78
68230;BME280;55048;52.220;5.160;2023-06-26T03:03:51;101097.63;;;23.12;64.53
68230;BME280;55048;52.220;5.160;2023-06-26T03:06:17;101117.78;;;23.20;64.61
68230;BME280;55048;52.220;5.160;2023-06-26T03:08:43;101056.75;;;22.69;65.03
68230;BME280;55048;52.220;5.160;2023-06-26T03:11:09;101086.81;;;22.81;65.25
68230;BME280;55048;52.220;5.160;2023-06-26T03:13:37;101147.59;;;23.11;65.59
68230;BME280;55048;52.220;5.160;2023-06-26T03:16:03;101161.16;;;23.11;65.48
68230;BME280;55048;52.220;5.160;2023-06-26T03:18:29;101128.03;;;22.92;65.79
68230;BME280;55048;52.220;5.160;2023-06-26T03:20:56;101143.38;;;22.97;65.78
68230;BME280;55048;52.220;5.160;2023-06-26T03:23:23;101114.50;;;22.70;66.07
68230;BME280;55048;52.220;5.160;2023-06-26T03:25:49;101180.78;;;23.08;66.38
68230;BME280;55048;52.220;5.160;2023-06-26T03:28:24;101137.22;;;22.82;65.98
68230;BME280;55048;52.220;5.160;2023-06-26T03:30:50;101181.81;;;22.99;66.17
68230;BME280;55048;52.220;5.160;2023-06-26T03:33:16;101129.06;;;22.51;66.49
68230;BME280;55048;52.220;5.160;2023-06-26T03:35:42;101078.47;;;22.15;66.68
68230;BME280;55048;52.220;5.160;2023-06-26T03:38:11;101213.16;;;22.82;67.55
68230;BME280;55048;52.220;5.160;2023-06-26T03:40:36;101171.38;;;22.61;67.79
68230;BME280;55048;52.220;5.160;2023-06-26T03:43:02;101133.06;;;22.31;67.71
68230;BME280;55048;52.220;5.160;2023-06-26T03:45:33;101186.66;;;22.57;67.96
68230;BME280;55048;52.220;5.160;2023-06-26T03:47:58;101196.94;;;22.69;68.25
68230;BME280;55048;52.220;5.160;2023-06-26T03:50:24;101201.44;;;22.51;68.79
68230;BME280;55048;52.220;5.160;2023-06-26T03:52:49;101060.44;;;21.75;68.45
68230;BME280;55048;52.220;5.160;2023-06-26T03:55:17;101188.22;;;22.49;68.23
68230;BME280;55048;52.220;5.160;2023-06-26T03:57:44;101141.78;;;22.20;67.96
68230;BME280;55048;52.220;5.160;2023-06-26T04:00:10;101128.31;;;22.14;67.72
68230;BME280;55048;52.220;5.160;2023-06-26T04:02:40;101214.47;;;22.62;67.78
68230;BME280;55048;52.220;5.160;2023-06-26T04:05:06;101159.63;;;22.21;67.86
68230;BME280;55048;52.220;5.160;2023-06-26T04:07:31;101204.09;;;22.42;67.79
68230;BME280;55048;52.220;5.160;2023-06-26T04:09:58;101199.97;;;22.45;67.76
68230;BME280;55048;52.220;5.160;2023-06-26T04:12:23;101103.91;;;21.92;67.53
68230;BME280;55048;52.220;5.160;2023-06-26T04:14:49;101165.03;;;22.21;67.69
68230;BME280;55048;52.220;5.160;2023-06-26T04:17:14;101217.91;;;22.54;67.60
68230;BME280;55048;52.220;5.160;2023-06-26T04:19:39;101173.16;;;22.21;67.18
68230;BME280;55048;52.220;5.160;2023-06-26T04:22:05;101173.16;;;22.21;67.91
68230;BME280;55048;52.220;5.160;2023-06-26T04:24:30;101096.34;;;21.67;67.96
68230;BME280;55048;52.220;5.160;2023-06-26T04:26:56;101163.84;;;22.13;67.68
68230;BME280;55048;52.220;5.160;2023-06-26T04:29:23;101252.88;;;22.64;67.42
68230;BME280;55048;52.220;5.160;2023-06-26T04:31:51;101214.31;;;22.45;67.08
68230;BME280;55048;52.220;5.160;2023-06-26T04:34:17;101175.38;;;22.05;66.74
68230;BME280;55048;52.220;5.160;2023-06-26T04:36:42;101262.66;;;22.52;66.52
68230;BME280;55048;52.220;5.160;2023-06-26T04:39:11;101219.69;;;22.23;66.44
68230;BME280;55048;52.220;5.160;2023-06-26T04:41:37;101147.75;;;21.80;65.75
68230;BME280;55048;52.220;5.160;2023-06-26T04:44:02;101217.78;;;22.23;65.75
68230;BME280;55048;52.220;5.160;2023-06-26T04:46:28;101239.44;;;22.37;65.71
68230;BME280;55048;52.220;5.160;2023-06-26T04:48:53;101266.50;;;22.51;65.92
68230;BME280;55048;52.220;5.160;2023-06-26T04:51:19;101285.31;;;22.33;65.98
68230;BME280;55048;52.220;5.160;2023-06-26T04:53:46;101276.72;;;22.18;66.07
68230;BME280;55048;52.220;5.160;2023-06-26T04:56:11;101277.91;;;22.25;66.05
68230;BME280;55048;52.220;5.160;2023-06-26T04:58:37;101261.56;;;22.17;65.68
68230;BME280;55048;52.220;5.160;2023-06-26T05:01:02;101249.81;;;22.21;65.47
68230;BME280;55048;52.220;5.160;2023-06-26T05:03:27;101259.94;;;22.29;64.79
68230;BME280;55048;52.220;5.160;2023-06-26T05:05:53;101237.00;;;22.13;65.07
68230;BME280;55048;52.220;5.160;2023-06-26T05:08:21;101232.44;;;22.08;65.17
68230;BME280;55048;52.220;5.160;2023-06-26T05:10:46;101155.91;;;21.67;64.87
68230;BME280;55048;52.220;5.160;2023-06-26T05:13:13;101295.50;;;22.50;64.90
68230;BME280;55048;52.220;5.160;2023-06-26T05:15:41;101275.53;;;22.46;64.77
68230;BME280;55048;52.220;5.160;2023-06-26T05:18:07;101278.59;;;22.31;64.77
68230;BME280;55048;52.220;5.160;2023-06-26T05:20:34;101296.75;;;22.44;64.73
68230;BME280;55048;52.220;5.160;2023-06-26T05:23:01;101302.41;;;22.56;64.41
68230;BME280;55048;52.220;5.160;2023-06-26T05:25:27;101308.75;;;22.52;65.10
68230;BME280;55048;52.220;5.160;2023-06-26T05:27:55;101312.75;;;22.54;64.61
68230;BME280;55048;52.220;5.160;2023-06-26T05:30:21;101203.72;;;21.85;64.75
68230;BME280;55048;52.220;5.160;2023-06-26T05:32:47;101269.78;;;22.25;64.48
68230;BME280;55048;52.220;5.160;2023-06-26T05:35:13;101294.34;;;22.29;64.51
68230;BME280;55048;52.220;5.160;2023-06-26T05:37:40;101279.28;;;22.09;64.29
68230;BME280;55048;52.220;5.160;2023-06-26T05:40:06;101210.34;;;21.79;64.02
68230;BME280;55048;52.220;5.160;2023-06-26T05:42:33;101276.22;;;22.15;63.80
68230;BME280;55048;52.220;5.160;2023-06-26T05:44:59;101324.66;;;22.31;64.09
68230;BME280;55048;52.220;5.160;2023-06-26T05:47:24;101351.50;;;22.55;63.83
68230;BME280;55048;52.220;5.160;2023-06-26T05:49:50;101347.53;;;22.52;64.43
68230;BME280;55048;52.220;5.160;2023-06-26T05:52:15;101098.47;;;20.73;65.01
68230;BME280;55048;52.220;5.160;2023-06-26T05:54:41;101347.94;;;22.32;64.72
68230;BME280;55048;52.220;5.160;2023-06-26T05:57:07;101357.75;;;22.41;65.23
68230;BME280;55048;52.220;5.160;2023-06-26T05:59:32;101253.34;;;21.80;64.82
68230;BME280;55048;52.220;5.160;2023-06-26T06:01:59;101322.75;;;22.31;64.46
68230;BME280;55048;52.220;5.160;2023-06-26T06:04:24;101342.09;;;22.52;64.46
68230;BME280;55048;52.220;5.160;2023-06-26T06:06:50;101288.34;;;22.18;63.88
68230;BME280;55048;52.220;5.160;2023-06-26T06:09:15;101375.84;;;22.82;62.53
68230;BME280;55048;52.220;5.160;2023-06-26T06:11:41;101388.13;;;23.38;61.42
68230;BME280;55048;52.220;5.160;2023-06-26T06:14:06;101319.16;;;23.17;61.31
68230;BME280;55048;52.220;5.160;2023-06-26T06:16:32;101384.41;;;23.57;60.90
68230;BME280;55048;52.220;5.160;2023-06-26T06:18:57;101334.22;;;23.01;60.49
68230;BME280;55048;52.220;5.160;2023-06-26T06:21:23;101384.22;;;23.31;60.75
68230;BME280;55048;52.220;5.160;2023-06-26T06:23:48;101243.94;;;22.41;59.97
68230;BME280;55048;52.220;5.160;2023-06-26T06:26:14;101364.22;;;23.18;60.26
68230;BME280;55048;52.220;5.160;2023-06-26T06:28:39;101410.47;;;23.13;61.35
68230;BME280;55048;52.220;5.160;2023-06-26T06:31:05;101378.16;;;22.75;61.60
68230;BME280;55048;52.220;5.160;2023-06-26T06:33:30;101295.41;;;22.41;61.27
68230;BME280;55048;52.220;5.160;2023-06-26T06:35:56;101344.00;;;22.88;61.34
68230;BME280;55048;52.220;5.160;2023-06-26T06:38:21;101362.09;;;23.15;60.88
68230;BME280;55048;52.220;5.160;2023-06-26T06:40:47;101361.38;;;23.01;60.86
68230;BME280;55048;52.220;5.160;2023-06-26T06:43:12;101214.81;;;21.97;61.35
68230;BME280;55048;52.220;5.160;2023-06-26T06:45:37;101429.47;;;23.13;62.31
68230;BME280;55048;52.220;5.160;2023-06-26T06:48:04;101333.88;;;22.44;63.52
68230;BME280;55048;52.220;5.160;2023-06-26T06:50:29;101338.03;;;22.63;63.04
68230;BME280;55048;52.220;5.160;2023-06-26T06:52:55;101390.88;;;23.02;62.86
68230;BME280;55048;52.220;5.160;2023-06-26T06:55:20;101395.03;;;23.22;62.47
68230;BME280;55048;52.220;5.160;2023-06-26T06:57:46;101299.25;;;22.40;62.59
68230;BME280;55048;52.220;5.160;2023-06-26T07:00:12;101451.97;;;23.58;62.15
68230;BME280;55048;52.220;5.160;2023-06-26T07:02:41;101427.66;;;23.53;61.79
68230;BME280;55048;52.220;5.160;2023-06-26T07:05:08;101443.84;;;23.81;61.63
68230;BME280;55048;52.220;5.160;2023-06-26T07:07:35;101448.94;;;23.74;61.60
68230;BME280;55048;52.220;5.160;2023-06-26T07:10:06;101470.19;;;24.03;60.96
68230;BME280;55048;52.220;5.160;2023-06-26T07:12:33;101471.06;;;24.21;59.98
68230;BME280;55048;52.220;5.160;2023-06-26T07:15:03;101421.28;;;24.03;58.87
68230;BME280;55048;52.220;5.160;2023-06-26T07:17:32;101436.97;;;24.14;58.59
68230;BME280;55048;52.220;5.160;2023-06-26T07:19:59;101478.38;;;24.42;58.39
68230;BME280;55048;52.220;5.160;2023-06-26T07:22:24;101409.09;;;24.00;58.50
68230;BME280;55048;52.220;5.160;2023-06-26T07:24:50;101438.66;;;24.33;58.47
68230;BME280;55048;52.220;5.160;2023-06-26T07:27:15;101370.13;;;24.05;57.79
68230;BME280;55048;52.220;5.160;2023-06-26T07:29:42;101457.16;;;24.71;57.36
68230;BME280;55048;52.220;5.160;2023-06-26T07:32:07;101432.50;;;24.50;57.47
68230;BME280;55048;52.220;5.160;2023-06-26T07:34:33;101473.03;;;24.68;57.37
68230;BME280;55048;52.220;5.160;2023-06-26T07:36:59;101460.09;;;24.34;57.16
68230;BME280;55048;52.220;5.160;2023-06-26T07:39:24;101464.22;;;24.01;57.51
68230;BME280;55048;52.220;5.160;2023-06-26T07:41:49;101430.44;;;23.62;57.98
68230;BME280;55048;52.220;5.160;2023-06-26T07:44:15;101459.94;;;23.77;57.99
68230;BME280;55048;52.220;5.160;2023-06-26T07:46:41;101406.44;;;23.55;57.56
68230;BME280;55048;52.220;5.160;2023-06-26T07:49:06;101357.16;;;23.39;57.09
68230;BME280;55048;52.220;5.160;2023-06-26T07:51:32;101479.88;;;24.26;56.30
68230;BME280;55048;52.220;5.160;2023-06-26T07:53:57;101506.06;;;24.22;57.02
68230;BME280;55048;52.220;5.160;2023-06-26T07:56:22;101455.38;;;23.86;56.98
68230;BME280;55048;52.220;5.160;2023-06-26T07:58:48;101507.06;;;24.26;57.53
68230;BME280;55048;52.220;5.160;2023-06-26T08:01:13;101510.13;;;24.33;56.96
68230;BME280;55048;52.220;5.160;2023-06-26T08:03:39;101495.50;;;23.89;58.12
68230;BME280;55048;52.220;5.160;2023-06-26T08:06:05;101489.41;;;24.15;57.23
68230;BME280;55048;52.220;5.160;2023-06-26T08:08:31;101435.22;;;23.79;56.62
68230;BME280;55048;52.220;5.160;2023-06-26T08:10:56;101480.50;;;24.23;56.22
68230;BME280;55048;52.220;5.160;2023-06-26T08:13:22;101502.97;;;24.37;56.10
68230;BME280;55048;52.220;5.160;2023-06-26T08:15:47;101536.44;;;24.47;56.06
68230;BME280;55048;52.220;5.160;2023-06-26T08:18:13;101446.66;;;23.98;55.85
68230;BME280;55048;52.220;5.160;2023-06-26T08:20:38;101506.47;;;24.07;56.10
68230;BME280;55048;52.220;5.160;2023-06-26T08:23:04;101536.13;;;23.95;56.73
68230;BME280;55048;52.220;5.160;2023-06-26T08:25:29;101540.66;;;24.30;55.75
68230;BME280;55048;52.220;5.160;2023-06-26T08:27:55;101419.03;;;24.05;54.97
68230;BME280;55048;52.220;5.160;2023-06-26T08:30:21;101514.09;;;24.58;53.91
68230;BME280;55048;52.220;5.160;2023-06-26T08:32:46;101506.69;;;24.41;53.72
68230;BME280;55048;52.220;5.160;2023-06-26T08:35:12;101546.13;;;24.70;53.93
68230;BME280;55048;52.220;5.160;2023-06-26T08:37:37;101372.88;;;23.51;54.03
68230;BME280;55048;52.220;5.160;2023-06-26T08:40:03;101535.78;;;24.41;54.11
68230;BME280;55048;52.220;5.160;2023-06-26T08:42:29;101521.34;;;24.72;53.59
68230;BME280;55048;52.220;5.160;2023-06-26T08:44:54;101489.97;;;24.26;53.42
68230;BME280;55048;52.220;5.160;2023-06-26T08:47:21;101466.56;;;24.16;52.84
68230;BME280;55048;52.220;5.160;2023-06-26T08:49:51;101545.22;;;24.83;52.61
68230;BME280;55048;52.220;5.160;2023-06-26T08:52:28;101561.66;;;25.09;52.09
68230;BME280;55048;52.220;5.160;2023-06-26T08:54:58;101545.81;;;25.11;52.10
68230;BME280;55048;52.220;5.160;2023-06-26T08:57:25;101517.41;;;24.47;52.20
68230;BME280;55048;52.220;5.160;2023-06-26T08:59:52;101579.81;;;24.52;52.75
68230;BME280;55048;52.220;5.160;2023-06-26T09:02:18;101530.75;;;24.03;53.20
68230;BME280;55048;52.220;5.160;2023-06-26T09:04:43;101562.84;;;24.01;54.41
68230;BME280;55048;52.220;5.160;2023-06-26T09:07:09;101567.28;;;24.19;53.70
68230;BME280;55048;52.220;5.160;2023-06-26T09:09:35;101581.66;;;24.20;53.75
68230;BME280;55048;52.220;5.160;2023-06-26T09:12:02;101576.38;;;24.37;53.07
68230;BME280;55048;52.220;5.160;2023-06-26T09:14:29;101560.69;;;23.67;53.19
68230;BME280;55048;52.220;5.160;2023-06-26T09:16:55;101566.13;;;24.12;52.88
68230;BME280;55048;52.220;5.160;2023-06-26T09:19:20;101600.81;;;24.60;51.96
68230;BME280;55048;52.220;5.160;2023-06-26T09:21:49;101550.19;;;23.97;51.47
68230;BME280;55048;52.220;5.160;2023-06-26T09:24:14;101563.84;;;24.05;51.23
68230;BME280;55048;52.220;5.160;2023-06-26T09:26:40;101562.84;;;24.01;51.03
68230;BME280;55048;52.220;5.160;2023-06-26T09:29:06;101541.22;;;24.18;51.37
68230;BME280;55048;52.220;5.160;2023-06-26T09:31:35;101559.47;;;23.96;50.98
68230;BME280;55048;52.220;5.160;2023-06-26T09:34:02;101555.31;;;23.76;51.22
68230;BME280;55048;52.220;5.160;2023-06-26T09:36:31;101611.16;;;24.27;51.51
68230;BME280;55048;52.220;5.160;2023-06-26T09:39:05;101620.47;;;24.34;50.71
68230;BME280;55048;52.220;5.160;2023-06-26T09:41:37;101618.03;;;24.78;50.32
68230;BME280;55048;52.220;5.160;2023-06-26T09:44:06;101628.25;;;25.12;49.43
68230;BME280;55048;52.220;5.160;2023-06-26T09:46:33;101604.50;;;25.04;48.22
68230;BME280;55048;52.220;5.160;2023-06-26T09:51:40;101638.16;;;25.08;47.84
68230;BME280;55048;52.220;5.160;2023-06-26T09:54:06;101634.38;;;25.26;47.26
68230;BME280;55048;52.220;5.160;2023-06-26T09:56:33;101622.66;;;25.17;47.00
68230;BME280;55048;52.220;5.160;2023-06-26T09:59:00;101548.13;;;24.87;47.24
68230;BME280;55048;52.220;5.160;2023-06-26T10:01:27;101612.00;;;25.55;46.33
68230;BME280;55048;52.220;5.160;2023-06-26T10:03:56;101611.84;;;25.52;44.88
68230;BME280;55048;52.220;5.160;2023-06-26T10:06:27;101456.41;;;24.30;45.31
68230;BME280;55048;52.220;5.160;2023-06-26T10:08:56;101643.53;;;25.39;44.01
68230;BME280;55048;52.220;5.160;2023-06-26T10:11:22;101667.31;;;25.56;44.52
68230;BME280;55048;52.220;5.160;2023-06-26T10:13:51;101628.75;;;24.83;45.13
68230;BME280;55048;52.220;5.160;2023-06-26T10:16:23;101625.00;;;25.01;44.68
68230;BME280;55048;52.220;5.160;2023-06-26T10:18:56;101639.28;;;24.76;44.73
68230;BME280;55048;52.220;5.160;2023-06-26T10:21:26;101581.78;;;24.60;44.26
68230;BME280;55048;52.220;5.160;2023-06-26T10:23:55;101578.59;;;24.66;44.34
68230;BME280;55048;52.220;5.160;2023-06-26T10:26:22;101562.03;;;24.46;44.39
68230;BME280;55048;52.220;5.160;2023-06-26T10:28:50;101675.75;;;25.06;45.04
68230;BME280;55048;52.220;5.160;2023-06-26T10:31:22;101628.44;;;24.31;45.81
68230;BME280;55048;52.220;5.160;2023-06-26T10:33:49;101687.97;;;24.55;46.70
68230;BME280;55048;52.220;5.160;2023-06-26T10:36:15;101675.44;;;24.45;47.02
68230;BME280;55048;52.220;5.160;2023-06-26T10:38:52;101649.06;;;24.09;47.83
68230;BME280;55048;52.220;5.160;2023-06-26T10:41:20;101681.16;;;24.97;46.88
68230;BME280;55048;52.220;5.160;2023-06-26T10:43:49;101639.00;;;25.17;46.32
68230;BME280;55048;52.220;5.160;2023-06-26T10:46:15;101654.25;;;25.35;45.12
68230;BME280;55048;52.220;5.160;2023-06-26T10:49:00;101663.41;;;25.39;45.22
68230;BME280;55048;52.220;5.160;2023-06-26T10:51:28;101592.00;;;25.03;45.10
68230;BME280;55048;52.220;5.160;2023-06-26T10:53:57;101696.00;;;25.70;44.47
68230;BME280;55048;52.220;5.160;2023-06-26T10:56:50;101689.59;;;25.66;44.89
68230;BME280;55048;52.220;5.160;2023-06-26T10:59:25;101699.97;;;25.64;43.83
68230;BME280;55048;52.220;5.160;2023-06-26T11:02:00;101712.66;;;25.60;43.66
68230;BME280;55048;52.220;5.160;2023-06-26T11:04:43;101710.56;;;25.57;43.59
68230;BME280;55048;52.220;5.160;2023-06-26T11:07:18;101697.25;;;25.47;43.32
68230;BME280;55048;52.220;5.160;2023-06-26T11:12:36;101704.84;;;25.76;43.46
68230;BME280;55048;52.220;5.160;2023-06-26T11:15:10;101716.34;;;25.73;43.26
68230;BME280;55048;52.220;5.160;2023-06-26T11:17:36;101568.31;;;25.03;43.18
68230;BME280;55048;52.220;5.160;2023-06-26T11:20:04;101660.75;;;25.65;41.95
68230;BME280;55048;52.220;5.160;2023-06-26T11:22:31;101729.75;;;26.27;41.92
68230;BME280;55048;52.220;5.160;2023-06-26T11:24:59;101681.31;;;26.15;42.82
68230;BME280;55048;52.220;5.160;2023-06-26T11:27:52;101696.22;;;25.34;42.27
68230;BME280;55048;52.220;5.160;2023-06-26T11:30:25;101662.53;;;25.22;43.91
68230;BME280;55048;52.220;5.160;2023-06-26T11:32:51;101644.66;;;24.98;42.34
68230;BME280;55048;52.220;5.160;2023-06-26T11:35:24;101743.19;;;25.40;42.07
68230;BME280;55048;52.220;5.160;2023-06-26T11:37:59;101746.47;;;25.19;42.15
68230;BME280;55048;52.220;5.160;2023-06-26T11:40:29;101751.16;;;25.28;42.61
68230;BME280;55048;52.220;5.160;2023-06-26T11:43:03;101704.44;;;25.43;42.55
68230;BME280;55048;52.220;5.160;2023-06-26T11:45:30;101709.41;;;25.50;42.59
68230;BME280;55048;52.220;5.160;2023-06-26T11:47:59;101761.94;;;25.50;43.12
68230;BME280;55048;52.220;5.160;2023-06-26T11:50:25;101768.53;;;25.18;41.80
68230;BME280;55048;52.220;5.160;2023-06-26T11:52:55;101772.28;;;25.70;42.28
68230;BME280;55048;52.220;5.160;2023-06-26T11:55:22;101747.25;;;25.51;41.55
68230;BME280;55048;52.220;5.160;2023-06-26T11:57:57;101741.50;;;24.99;43.55
68230;BME280;55048;52.220;5.160;2023-06-26T12:00:23;101758.28;;;25.46;42.88
68230;BME280;55048;52.220;5.160;2023-06-26T12:02:49;101778.91;;;25.78;42.53
68230;BME280;55048;52.220;5.160;2023-06-26T12:05:18;101770.25;;;25.45;42.83
68230;BME280;55048;52.220;5.160;2023-06-26T12:07:46;101795.09;;;25.83;42.29
68230;BME280;55048;52.220;5.160;2023-06-26T12:10:13;101790.28;;;25.80;41.44
68230;BME280;55048;52.220;5.160;2023-06-26T12:12:40;101776.19;;;25.87;41.96
68230;BME280;55048;52.220;5.160;2023-06-26T12:15:07;101745.63;;;25.99;40.88
68230;BME280;55048;52.220;5.160;2023-06-26T12:17:32;101802.59;;;26.35;40.57
68230;BME280;55048;52.220;5.160;2023-06-26T12:19:58;101698.88;;;25.65;40.46
68230;BME280;55048;52.220;5.160;2023-06-26T12:22:23;101802.91;;;26.42;41.08
68230;BME280;55048;52.220;5.160;2023-06-26T12:24:49;101794.53;;;26.30;40.87
68230;BME280;55048;52.220;5.160;2023-06-26T12:27:17;101772.53;;;25.91;41.44
68230;BME280;55048;52.220;5.160;2023-06-26T12:29:50;101811.13;;;25.76;42.26
68230;BME280;55048;52.220;5.160;2023-06-26T12:32:17;101797.75;;;26.14;41.52
68230;BME280;55048;52.220;5.160;2023-06-26T12:34:48;101794.38;;;26.09;42.28
68230;BME280;55048;52.220;5.160;2023-06-26T12:37:14;101812.94;;;25.89;42.45
68230;BME280;55048;52.220;5.160;2023-06-26T12:39:56;101763.91;;;25.18;43.51
68230;BME280;55048;52.220;5.160;2023-06-26T12:42:33;101826.09;;;25.56;43.57
68230;BME280;55048;52.220;5.160;2023-06-26T12:44:58;101697.78;;;24.64;43.76
68230;BME280;55048;52.220;5.160;2023-06-26T12:47:25;101778.81;;;25.21;43.28
68230;BME280;55048;52.220;5.160;2023-06-26T12:49:52;101792.00;;;25.36;43.13
68230;BME280;55048;52.220;5.160;2023-06-26T12:52:18;101826.53;;;25.50;43.59
68230;BME280;55048;52.220;5.160;2023-06-26T12:54:45;101817.50;;;25.40;43.72
68230;BME280;55048;52.220;5.160;2023-06-26T12:57:12;101693.28;;;24.37;44.36